Time;durP1;ratioP1;P1;durP2;ratioP2;P2;SDS_P1;SDS_P2;PMS_P1;PMS_P2;Temp;Humidity;BMP_temperature;BMP_pressure;BME280_temperature;BME280_humidity;BME280_pressure;Samples;Min_cycle;Max_cycle;Signal;HPM_P1;HPM_P2
2021/09/27 00:01:01;;;;;;;18.80;17.05;;;;;21.80;100473.00;;;;2062421;28;20211;-56
2021/09/27 00:02:01;;;;;;;18.52;16.63;;;;;21.80;100475.00;;;;2062444;28;20578;-56
2021/09/27 00:03:02;;;;;;;19.60;17.70;;;;;21.80;100472.00;;;;2061702;28;20276;-56
2021/09/27 00:04:02;;;;;;;18.43;16.60;;;;;21.80;100468.00;;;;2062307;28;20239;-56
2021/09/27 00:05:05;;;;;;;18.67;16.80;;;;;21.70;100471.00;;;;2061227;28;20485;-56
2021/09/27 00:06:06;;;;;;;18.85;16.30;;;;;21.80;100471.00;;;;2062307;28;20313;-56
2021/09/27 00:07:07;;;;;;;17.98;16.27;;;;;21.80;100468.00;;;;2062057;28;20219;-56
2021/09/27 00:08:07;;;;;;;17.53;15.83;;;;;21.70;100475.00;;;;2062293;28;20211;-56
2021/09/27 00:09:08;;;;;;;17.40;15.80;;;;;21.70;100470.00;;;;2061482;28;21138;-56
2021/09/27 00:10:09;;;;;;;15.90;14.30;;;;;21.80;100475.00;;;;2062388;28;20218;-56
2021/09/27 00:11:16;;;;;;;17.73;16.00;;;;;21.80;100473.00;;;;2068479;28;20206;-56
2021/09/27 00:12:17;;;;;;;17.30;15.55;;;;;21.80;100472.00;;;;2062204;28;20301;-56
2021/09/27 00:13:18;;;;;;;17.63;15.93;;;;;21.70;100474.00;;;;2062471;28;20222;-56
2021/09/27 00:14:18;;;;;;;17.43;15.70;;;;;21.70;100468.00;;;;2062536;28;20214;-56
2021/09/27 00:15:23;;;;;;;16.77;15.07;;;;;21.70;100480.00;;;;2061729;28;21175;-56
2021/09/27 00:16:23;;;;;;;17.48;15.68;;;;;21.70;100475.00;;;;2062028;28;20219;-56
2021/09/27 00:17:23;;;;;;;16.50;14.90;;;;;21.70;100477.00;;;;2063111;28;20753;-56
2021/09/27 00:18:24;;;;;;;16.97;15.37;;;;;21.70;100468.00;;;;2062019;28;20306;-56
2021/09/27 00:19:24;;;;;;;15.80;14.40;;;;;21.70;100471.00;;;;2061267;28;20218;-56
2021/09/27 00:20:25;;;;;;;15.70;14.20;;;;;21.70;100473.00;;;;2062600;28;20214;-56
2021/09/27 00:21:27;;;;;;;16.67;14.50;;;;;21.80;100476.00;;;;2062441;28;20211;-56
2021/09/27 00:22:28;;;;;;;16.15;14.65;;;;;21.70;100466.00;;;;2062369;28;20210;-56
2021/09/27 00:23:29;;;;;;;16.27;14.60;;;;;21.70;100475.00;;;;2062508;28;20691;-56
2021/09/27 00:24:30;;;;;;;15.73;14.23;;;;;21.80;100469.00;;;;2062563;28;20210;-56
2021/09/27 00:25:30;;;;;;;16.13;14.63;;;;;21.80;100474.00;;;;2062473;28;20219;-56
2021/09/27 00:26:31;;;;;;;16.30;14.70;;;;;21.80;100471.00;;;;2062153;28;20297;-56
2021/09/27 00:27:31;;;;;;;16.00;14.47;;;;;21.80;100470.00;;;;2062145;28;20221;-56
2021/09/27 00:28:31;;;;;;;15.17;13.67;;;;;21.80;100477.00;;;;2062198;28;20222;-56
2021/09/27 00:29:32;;;;;;;16.47;14.80;;;;;21.80;100470.00;;;;2061324;28;20211;-56
2021/09/27 00:30:32;;;;;;;14.50;13.20;;;;;21.80;100472.00;;;;2062223;28;20226;-56
2021/09/27 00:31:33;;;;;;;14.40;13.00;;;;;21.80;100462.00;;;;2062423;28;20269;-56
2021/09/27 00:32:33;;;;;;;14.80;13.40;;;;;21.80;100469.00;;;;2067441;28;20224;-56
2021/09/27 00:33:33;;;;;;;14.30;12.87;;;;;21.80;100474.00;;;;2070367;28;20214;-56
2021/09/27 00:34:34;;;;;;;14.87;13.57;;;;;21.70;100471.00;;;;2070569;28;20210;-56
2021/09/27 00:35:35;;;;;;;14.50;13.20;;;;;21.80;100475.00;;;;2070488;28;20214;-56
2021/09/27 00:36:36;;;;;;;15.35;13.85;;;;;21.80;100477.00;;;;2062545;28;20237;-56
2021/09/27 00:37:36;;;;;;;14.93;13.30;;;;;21.80;100474.00;;;;2061075;28;20672;-56
2021/09/27 00:38:36;;;;;;;14.73;13.33;;;;;21.80;100472.00;;;;2061591;28;20246;-58
2021/09/27 00:39:38;;;;;;;14.73;13.43;;;;;21.70;100471.00;;;;2060973;28;20218;-56
2021/09/27 00:40:43;;;;;;;12.93;11.63;;;;;21.80;100470.00;;;;2063965;28;20211;-56
2021/09/27 00:41:44;;;;;;;13.63;12.43;;;;;21.70;100476.00;;;;2069623;28;20217;-56
2021/09/27 00:42:45;;;;;;;13.10;11.90;;;;;21.70;100472.00;;;;2068867;28;20266;-56
2021/09/27 00:43:46;;;;;;;13.70;12.40;;;;;21.70;100476.00;;;;2067026;28;20610;-56
2021/09/27 00:44:46;;;;;;;12.70;11.53;;;;;21.70;100474.00;;;;2063788;28;20230;-56
2021/09/27 00:45:52;;;;;;;13.40;12.20;;;;;21.70;100470.00;;;;2063789;28;20297;-56
2021/09/27 00:46:53;;;;;;;13.50;12.20;;;;;21.70;100474.00;;;;2063866;28;20625;-56
2021/09/27 00:47:53;;;;;;;13.30;12.17;;;;;21.70;100471.00;;;;2063177;28;20230;-56
2021/09/27 00:48:54;;;;;;;13.70;12.33;;;;;21.70;100469.00;;;;2062984;28;20203;-56
2021/09/27 00:49:54;;;;;;;13.27;12.00;;;;;21.70;100473.00;;;;2063745;28;20207;-56
2021/09/27 00:50:57;;;;;;;13.00;11.80;;;;;21.70;100475.00;;;;2065642;28;20479;-56
2021/09/27 00:51:57;;;;;;;11.80;10.70;;;;;21.80;100473.00;;;;2058188;28;20211;-56
2021/09/27 00:52:57;;;;;;;12.87;11.60;;;;;21.70;100475.00;;;;2062409;28;20210;-60
2021/09/27 00:54:00;;;;;;;12.73;11.53;;;;;21.70;100469.00;;;;2061348;28;20265;-60
2021/09/27 00:55:00;;;;;;;13.02;11.75;;;;;21.70;100473.00;;;;2063303;28;21012;-56
2021/09/27 00:56:01;;;;;;;12.77;11.47;;;;;21.70;100471.00;;;;2068920;28;20261;-57
2021/09/27 00:57:06;;;;;;;12.47;11.27;;;;;21.70;100454.00;;;;2071488;28;20242;-56
2021/09/27 00:58:06;;;;;;;11.95;10.75;;;;;21.70;100455.00;;;;2070246;28;20218;-56
2021/09/27 00:59:06;;;;;;;12.50;11.20;;;;;21.70;100464.00;;;;2070013;28;20206;-56
2021/09/27 01:00:08;;;;;;;13.10;11.90;;;;;21.70;100467.00;;;;2071108;28;20222;-55
2021/09/27 01:01:08;;;;;;;11.80;10.75;;;;;21.70;100458.00;;;;2072650;28;20206;-56
2021/09/27 01:02:10;;;;;;;11.90;10.90;;;;;21.70;100465.00;;;;2064098;28;20219;-56
2021/09/27 01:03:10;;;;;;;12.50;11.40;;;;;21.70;100461.00;;;;2063472;28;20222;-57
2021/09/27 01:04:10;;;;;;;12.03;10.93;;;;;21.70;100456.00;;;;2063623;28;20702;-56
2021/09/27 01:05:12;;;;;;;11.90;10.80;;;;;21.70;100463.00;;;;2064104;28;20230;-56
2021/09/27 01:06:49;;;;;;;11.85;10.68;;;;;21.70;100465.00;;;;2063825;28;20233;-56
2021/09/27 01:08:17;;;;;;;11.50;10.40;;;;;21.70;100457.00;;;;2063802;28;20233;-56
2021/09/27 01:09:23;;;;;;;11.52;10.45;;;;;21.70;100454.00;;;;2061650;28;20223;-56
2021/09/27 01:10:33;;;;;;;11.48;10.48;;;;;21.70;100454.00;;;;2063385;28;20297;-56
2021/09/27 01:12:04;;;;;;;11.10;10.10;;;;;21.70;100446.00;;;;2063207;28;20798;-56
2021/09/27 01:13:16;;;;;;;11.05;9.95;;;;;21.70;100449.00;;;;2063014;28;20302;-56
2021/09/27 01:14:30;;;;;;;11.27;10.32;;;;;21.70;100451.00;;;;2063060;28;20215;-56
2021/09/27 01:15:59;;;;;;;10.45;9.55;;;;;21.70;100457.00;;;;2063531;28;20285;-56
2021/09/27 01:17:08;;;;;;;10.70;9.63;;;;;21.70;100451.00;;;;2053007;28;20322;-56
2021/09/27 01:18:15;;;;;;;11.10;10.00;;;;;21.70;100452.00;;;;2064814;28;20699;-56
2021/09/27 01:19:34;;;;;;;11.45;10.40;;;;;21.70;100454.00;;;;2069792;28;20297;-56
2021/09/27 01:20:56;;;;;;;10.88;9.98;;;;;21.70;100448.00;;;;2071266;28;20241;-56
2021/09/27 01:22:22;;;;;;;10.48;9.57;;;;;21.70;100448.00;;;;2064298;28;20294;-56
2021/09/27 01:23:59;;;;;;;10.60;9.70;;;;;21.70;100454.00;;;;2063448;28;20277;-56
2021/09/27 01:25:30;;;;;;;10.80;9.80;;;;;21.70;100449.00;;;;2061020;28;20357;-56
2021/09/27 01:26:30;;;;;;;10.65;9.65;;;;;21.70;100450.00;;;;2061040;28;20223;-55
2021/09/27 01:27:50;;;;;;;9.60;8.70;;;;;21.70;100451.00;;;;2066392;28;21878;-57
2021/09/27 01:29:27;;;;;;;10.25;9.27;;;;;21.70;100450.00;;;;2059757;28;20218;-56
2021/09/27 01:30:59;;;;;;;10.05;9.15;;;;;21.70;100448.00;;;;2063728;28;20305;-56
2021/09/27 01:32:18;;;;;;;10.48;9.50;;;;;21.80;100447.00;;;;2062832;28;20221;-56
2021/09/27 01:33:37;;;;;;;10.32;9.43;;;;;21.70;100445.00;;;;2062981;28;20241;-55
2021/09/27 01:34:51;;;;;;;10.55;9.55;;;;;21.70;100448.00;;;;2061785;28;20222;-56
2021/09/27 01:36:12;;;;;;;9.73;8.88;;;;;21.70;100441.00;;;;2055451;28;20219;-56
2021/09/27 01:37:25;;;;;;;9.95;9.10;;;;;21.70;100444.00;;;;2054090;28;20238;-56
2021/09/27 01:38:44;;;;;;;10.63;9.70;;;;;21.70;100441.00;;;;2059623;28;20317;-56
2021/09/27 01:40:11;;;;;;;10.07;9.27;;;;;21.70;100452.00;;;;2069754;28;20232;-56
2021/09/27 01:41:14;;;;;;;9.73;8.82;;;;;21.70;100451.00;;;;2070359;28;20655;-56
2021/09/27 01:42:37;;;;;;;9.75;8.95;;;;;21.70;100446.00;;;;2064761;28;20229;-56
2021/09/27 01:44:13;;;;;;;9.68;8.77;;;;;21.70;100463.00;;;;2062106;28;20634;-55
2021/09/27 01:45:32;;;;;;;10.35;9.35;;;;;21.70;100452.00;;;;2068533;28;20224;-56
2021/09/27 01:46:54;;;;;;;9.80;8.90;;;;;21.70;100445.00;;;;2060455;28;20203;-56
2021/09/27 01:47:55;;;;;;;9.07;8.30;;;;;21.70;100452.00;;;;2062527;28;20511;-56
2021/09/27 01:49:11;;;;;;;9.87;8.97;;;;;21.70;100447.00;;;;2061145;28;21203;-56
2021/09/27 01:50:21;;;;;;;9.10;8.35;;;;;21.70;100446.00;;;;2040573;28;20219;-56
2021/09/27 01:51:23;;;;;;;9.40;8.60;;;;;21.70;100448.00;;;;2046206;28;20720;-56
2021/09/27 01:52:37;;;;;;;9.02;8.30;;;;;21.70;100446.00;;;;2055263;28;20567;-56
2021/09/27 01:53:49;;;;;;;8.77;8.07;;;;;21.70;100442.00;;;;2062707;28;20214;-56
2021/09/27 01:54:51;;;;;;;9.45;8.65;;;;;21.70;100444.00;;;;2052863;28;21137;-56
2021/09/27 01:56:10;;;;;;;9.23;8.48;;;;;21.70;100442.00;;;;2055203;28;20221;-56
2021/09/27 01:57:37;;;;;;;9.27;8.48;;;;;21.70;100433.00;;;;2057141;28;20340;-56
2021/09/27 01:59:17;;;;;;;8.70;7.90;;;;;21.70;100430.00;;;;2062805;28;20683;-58
2021/09/27 02:00:47;;;;;;;10.02;9.10;;;;;21.70;100426.00;;;;2054733;28;20278;-56
2021/09/27 02:01:51;;;;;;;9.45;8.55;;;;;21.70;100433.00;;;;2056941;28;20203;-55
2021/09/27 02:03:27;;;;;;;9.02;8.15;;;;;21.70;100436.00;;;;2062707;28;20293;-55
2021/09/27 02:05:01;;;;;;;8.75;8.05;;;;;21.70;100432.00;;;;2062075;28;20900;-56
2021/09/27 02:06:23;;;;;;;8.95;8.15;;;;;21.70;100428.00;;;;2054236;28;20238;-55
2021/09/27 02:07:24;;;;;;;7.53;6.90;;;;;21.70;100421.00;;;;2064162;28;20305;-56
2021/09/27 02:08:50;;;;;;;7.90;7.30;;;;;21.70;100426.00;;;;2035869;28;20725;-56
2021/09/27 02:10:08;;;;;;;9.50;8.70;;;;;21.70;100432.00;;;;2057667;28;20210;-56
2021/09/27 02:11:14;;;;;;;9.23;8.45;;;;;21.70;100436.00;;;;2064584;28;20702;-56
2021/09/27 02:12:19;;;;;;;8.60;7.80;;;;;21.70;100437.00;;;;2061923;28;20218;-56
2021/09/27 02:13:25;;;;;;;8.23;7.53;;;;;21.70;100435.00;;;;2055128;28;20223;-55
2021/09/27 02:14:41;;;;;;;9.00;8.20;;;;;21.70;100430.00;;;;2054763;28;20223;-56
2021/09/27 02:15:48;;;;;;;8.25;7.55;;;;;21.70;100432.00;;;;2050477;28;20250;-56
2021/09/27 02:17:03;;;;;;;8.00;7.30;;;;;21.70;100433.00;;;;2056486;28;20230;-56
2021/09/27 02:18:10;;;;;;;8.57;7.88;;;;;21.70;100433.00;;;;2070943;28;20249;-56
2021/09/27 02:19:22;;;;;;;8.52;7.72;;;;;21.70;100435.00;;;;2059974;28;20219;-56
2021/09/27 02:20:32;;;;;;;8.07;7.35;;;;;21.70;100422.00;;;;2056255;28;20724;-56
2021/09/27 02:21:35;;;;;;;7.95;7.32;;;;;21.70;100415.00;;;;2053791;28;20250;-56
2021/09/27 02:22:51;;;;;;;8.15;7.55;;;;;21.70;100423.00;;;;2054734;28;20298;-56
2021/09/27 02:23:52;;;;;;;8.30;7.60;;;;;21.70;100421.00;;;;2056502;28;20211;-56
2021/09/27 02:25:01;;;;;;;7.97;7.37;;;;;21.70;100422.00;;;;2062624;28;20602;-55
2021/09/27 02:26:02;;;;;;;8.10;7.40;;;;;21.70;100419.00;;;;2054690;28;20216;-56
2021/09/27 02:27:02;;;;;;;7.80;7.20;;;;;21.70;100425.00;;;;2055208;28;20216;-56
2021/09/27 02:28:05;;;;;;;7.83;7.23;;;;;21.70;100429.00;;;;2062564;28;20309;-56
2021/09/27 02:29:05;;;;;;;8.00;7.30;;;;;21.70;100424.00;;;;2045174;28;20772;-56
2021/09/27 02:30:06;;;;;;;7.53;6.93;;;;;21.70;100423.00;;;;2053704;28;20303;-56
2021/09/27 02:31:09;;;;;;;7.50;6.90;;;;;21.70;100424.00;;;;2068818;28;20217;-56
2021/09/27 02:32:16;;;;;;;8.15;7.45;;;;;21.70;100424.00;;;;2062687;28;20215;-56
2021/09/27 02:33:48;;;;;;;7.72;7.13;;;;;21.70;100423.00;;;;2051806;28;20220;-57
2021/09/27 02:35:13;;;;;;;7.40;6.80;;;;;21.70;100418.00;;;;2058979;28;20254;-57
2021/09/27 02:36:19;;;;;;;7.60;6.90;;;;;21.70;100423.00;;;;2062498;28;20215;-56
2021/09/27 02:37:42;;;;;;;7.00;6.40;;;;;21.70;100428.00;;;;2059841;28;20227;-56
2021/09/27 02:38:48;;;;;;;7.53;6.93;;;;;21.70;100428.00;;;;2061394;28;20711;-56
2021/09/27 02:40:09;;;;;;;7.53;6.85;;;;;21.70;100411.00;;;;2062793;28;20219;-56
2021/09/27 02:41:42;;;;;;;7.70;7.10;;;;;21.70;100420.00;;;;2064067;28;20227;-56
2021/09/27 02:42:43;;;;;;;7.10;6.50;;;;;21.70;100431.00;;;;2069297;28;20273;-56
2021/09/27 02:43:44;;;;;;;6.82;6.22;;;;;21.70;100426.00;;;;2062514;28;20220;-57
2021/09/27 02:44:45;;;;;;;7.60;6.93;;;;;21.70;100427.00;;;;2062896;28;20218;-56
2021/09/27 02:45:46;;;;;;;8.13;7.43;;;;;21.70;100427.00;;;;2062624;28;20806;-56
2021/09/27 02:46:54;;;;;;;7.47;6.80;;;;;21.70;100430.00;;;;2062250;28;20226;-56
2021/09/27 02:48:21;;;;;;;6.63;6.13;;;;;21.70;100431.00;;;;2063423;28;20625;-56
2021/09/27 02:49:26;;;;;;;7.07;6.47;;;;;21.70;100429.00;;;;2065623;28;20225;-56
2021/09/27 02:50:32;;;;;;;7.20;6.65;;;;;21.70;100433.00;;;;2070708;28;20286;-56
2021/09/27 02:51:32;;;;;;;6.65;6.10;;;;;21.70;100435.00;;;;2067879;28;20217;-56
2021/09/27 02:52:32;;;;;;;7.27;6.70;;;;;21.70;100433.00;;;;2064929;28;20210;-56
2021/09/27 02:53:33;;;;;;;6.83;6.30;;;;;21.70;100431.00;;;;2063087;28;20211;-56
2021/09/27 02:54:39;;;;;;;7.30;6.60;;;;;21.70;100429.00;;;;2063226;28;21052;-56
2021/09/27 02:56:14;;;;;;;6.53;5.97;;;;;21.70;100433.00;;;;2053913;28;20697;-56
2021/09/27 02:57:26;;;;;;;6.88;6.28;;;;;21.70;100438.00;;;;2063515;28;20226;-56
2021/09/27 02:58:45;;;;;;;8.00;7.30;;;;;21.70;100425.00;;;;2068816;28;20559;-56
2021/09/27 03:00:09;;;;;;;6.70;6.18;;;;;21.70;100423.00;;;;2062467;28;20219;-56
2021/09/27 03:01:23;;;;;;;7.07;6.47;;;;;21.70;100415.00;;;;2062517;28;20221;-56
2021/09/27 03:02:45;;;;;;;6.63;6.13;;;;;21.70;100414.00;;;;2061897;28;20555;-56
2021/09/27 03:03:48;;;;;;;6.82;6.25;;;;;21.70;100406.00;;;;2070539;28;20983;-56
2021/09/27 03:04:55;;;;;;;7.05;6.45;;;;;21.70;100407.00;;;;2069158;28;20244;-56
2021/09/27 03:06:09;;;;;;;7.18;6.57;;;;;21.70;100411.00;;;;2066342;28;20219;-56
2021/09/27 03:07:14;;;;;;;6.55;6.05;;;;;21.70;100405.00;;;;2067447;28;20221;-56
2021/09/27 03:08:37;;;;;;;7.57;6.97;;;;;21.70;100403.00;;;;2062455;28;20857;-56
2021/09/27 03:10:16;;;;;;;7.40;6.80;;;;;21.70;100410.00;;;;2066069;28;20248;-55
2021/09/27 03:11:42;;;;;;;7.07;6.47;;;;;21.70;100406.00;;;;2069243;28;20214;-56
2021/09/27 03:12:53;;;;;;;6.55;6.05;;;;;21.60;100408.00;;;;2065806;28;20217;-56
2021/09/27 03:14:19;;;;;;;6.50;6.00;;;;;21.70;100411.00;;;;2060082;28;20215;-56
2021/09/27 03:15:44;;;;;;;6.43;5.85;;;;;21.70;100406.00;;;;2046659;28;20222;-56
2021/09/27 03:17:02;;;;;;;6.30;5.80;;;;;21.70;100410.00;;;;2058739;28;20211;-56
2021/09/27 03:18:10;;;;;;;6.60;6.10;;;;;21.70;100415.00;;;;2070010;28;20214;-56
2021/09/27 03:19:17;;;;;;;6.68;6.07;;;;;21.70;100408.00;;;;2069786;28;20216;-56
2021/09/27 03:20:40;;;;;;;6.80;6.30;;;;;21.70;100408.00;;;;2070183;28;20229;-56
2021/09/27 03:22:04;;;;;;;6.70;6.10;;;;;21.70;100406.00;;;;2069371;28;20682;-55
2021/09/27 03:23:10;;;;;;;6.43;5.82;;;;;21.70;100406.00;;;;2070605;28;20210;-56
2021/09/27 03:24:10;;;;;;;6.13;5.63;;;;;21.70;100404.00;;;;2069968;28;20250;-56
2021/09/27 03:25:29;;;;;;;6.60;6.00;;;;;21.70;100408.00;;;;2066906;28;20218;-56
2021/09/27 03:26:51;;;;;;;7.03;6.50;;;;;21.70;100406.00;;;;2069889;28;20237;-56
2021/09/27 03:28:16;;;;;;;6.18;5.68;;;;;21.70;100401.00;;;;2067948;28;20242;-56
2021/09/27 03:29:29;;;;;;;7.07;6.47;;;;;21.70;100405.00;;;;2068586;28;20280;-56
2021/09/27 03:30:38;;;;;;;6.15;5.65;;;;;21.70;100405.00;;;;2065412;28;20217;-56
2021/09/27 03:32:17;;;;;;;7.07;6.47;;;;;21.70;100404.00;;;;2062571;28;20235;-56
2021/09/27 03:33:36;;;;;;;6.85;6.35;;;;;21.70;100405.00;;;;2069317;28;20214;-56
2021/09/27 03:34:55;;;;;;;6.68;6.18;;;;;21.70;100398.00;;;;2063768;28;20280;-56
2021/09/27 03:36:07;;;;;;;6.03;5.53;;;;;21.70;100395.00;;;;2062014;28;20301;-57
2021/09/27 03:37:40;;;;;;;6.90;6.40;;;;;21.70;100393.00;;;;2061756;28;20302;-56
2021/09/27 03:38:46;;;;;;;7.10;6.50;;;;;21.70;100380.00;;;;2057965;28;20226;-56
2021/09/27 03:40:08;;;;;;;5.97;5.40;;;;;21.70;100389.00;;;;2062194;28;20214;-56
2021/09/27 03:41:36;;;;;;;6.30;5.80;;;;;21.70;100385.00;;;;2055025;28;20207;-56
2021/09/27 03:42:51;;;;;;;6.63;6.13;;;;;21.70;100389.00;;;;2069084;28;20905;-56
2021/09/27 03:44:14;;;;;;;6.35;5.85;;;;;21.70;100388.00;;;;2062747;28;20587;-56
2021/09/27 03:45:26;;;;;;;6.75;6.25;;;;;21.70;100390.00;;;;2066474;28;20218;-56
2021/09/27 03:46:52;;;;;;;6.25;5.75;;;;;21.70;100397.00;;;;2059852;28;20714;-57
2021/09/27 03:48:05;;;;;;;6.60;6.10;;;;;21.70;100392.00;;;;2057354;28;20624;-56
2021/09/27 03:49:30;;;;;;;6.22;5.72;;;;;21.70;100382.00;;;;2053476;28;20258;-56
2021/09/27 03:50:33;;;;;;;6.32;5.78;;;;;21.70;100396.00;;;;2066535;28;20265;-56
2021/09/27 03:51:36;;;;;;;6.43;5.93;;;;;21.70;100396.00;;;;2062290;28;20710;-56
2021/09/27 03:52:41;;;;;;;6.38;5.88;;;;;21.70;100390.00;;;;2059557;28;20262;-56
2021/09/27 03:53:55;;;;;;;6.53;5.85;;;;;21.60;100389.00;;;;2045180;28;20216;-56
2021/09/27 03:55:02;;;;;;;6.57;5.97;;;;;21.60;100391.00;;;;2052742;28;20217;-55
2021/09/27 03:56:09;;;;;;;6.40;5.90;;;;;21.70;100393.00;;;;2062131;28;20298;-56
2021/09/27 03:57:16;;;;;;;6.18;5.60;;;;;21.70;100399.00;;;;2062773;28;20273;-56
2021/09/27 03:58:27;;;;;;;6.43;5.93;;;;;21.70;100398.00;;;;2056571;28;20310;-56
2021/09/27 03:59:41;;;;;;;6.20;5.70;;;;;21.60;100391.00;;;;2038258;28;20256;-56
2021/09/27 04:00:56;;;;;;;6.05;5.55;;;;;21.70;100393.00;;;;2046451;28;20310;-56
2021/09/27 04:02:05;;;;;;;6.15;5.65;;;;;21.70;100396.00;;;;2052058;28;20213;-57
2021/09/27 04:03:06;;;;;;;6.78;6.28;;;;;21.70;100398.00;;;;2054480;28;20227;-56
2021/09/27 04:04:28;;;;;;;6.30;5.70;;;;;21.70;100401.00;;;;2061805;28;20218;-56
2021/09/27 04:06:06;;;;;;;6.13;5.63;;;;;21.60;100400.00;;;;2059491;28;20982;-56
2021/09/27 04:07:13;;;;;;;6.50;6.00;;;;;21.70;100403.00;;;;2043693;28;20243;-56
2021/09/27 04:08:40;;;;;;;6.25;5.75;;;;;21.60;100395.00;;;;2060147;28;21300;-56
2021/09/27 04:09:48;;;;;;;6.07;5.68;;;;;21.70;100398.00;;;;2049967;28;20688;-56
2021/09/27 04:10:49;;;;;;;6.35;5.85;;;;;21.70;100398.00;;;;2053798;28;20232;-57
2021/09/27 04:11:58;;;;;;;7.20;5.43;;;;;21.70;100391.00;;;;2061417;28;20214;-56
2021/09/27 04:13:16;;;;;;;6.00;5.50;;;;;21.70;100396.00;;;;2062194;28;20215;-56
2021/09/27 04:14:21;;;;;;;5.80;5.40;;;;;21.70;100397.00;;;;2062307;28;20587;-56
2021/09/27 04:15:41;;;;;;;5.85;5.35;;;;;21.70;100398.00;;;;2061855;28;20630;-56
2021/09/27 04:16:44;;;;;;;5.60;5.20;;;;;21.70;100395.00;;;;2058282;28;20207;-57
2021/09/27 04:18:07;;;;;;;6.15;5.65;;;;;21.70;100397.00;;;;2061990;28;20298;-56
2021/09/27 04:19:29;;;;;;;5.93;5.43;;;;;21.70;100400.00;;;;2058838;28;20207;-56
2021/09/27 04:20:34;;;;;;;5.88;5.38;;;;;21.70;100394.00;;;;2069520;28;20298;-57
2021/09/27 04:21:45;;;;;;;6.22;5.72;;;;;21.70;100395.00;;;;2061334;28;20229;-57
2021/09/27 04:22:59;;;;;;;5.88;5.38;;;;;21.70;100397.00;;;;2061668;28;20979;-56
2021/09/27 04:24:27;;;;;;;5.93;5.53;;;;;21.60;100395.00;;;;2068937;28;20244;-57
2021/09/27 04:26:28;;;;;;;6.07;5.57;;;;;21.60;100394.00;;;;2066971;28;20857;-57
2021/09/27 04:27:34;;;;;;;6.13;5.63;;;;;21.70;100388.00;;;;2067929;28;20217;-57
2021/09/27 04:28:53;;;;;;;6.53;6.03;;;;;21.70;100398.00;;;;2065144;28;20227;-56
2021/09/27 04:30:10;;;;;;;6.18;5.68;;;;;21.70;100395.00;;;;2064579;28;20295;-56
2021/09/27 04:31:36;;;;;;;6.00;5.53;;;;;21.60;100390.00;;;;2049265;28;20224;-57
2021/09/27 04:32:48;;;;;;;5.60;5.20;;;;;21.60;100404.00;;;;2044941;28;20263;-57
2021/09/27 04:34:06;;;;;;;6.15;5.65;;;;;21.60;100403.00;;;;2052062;28;20227;-57
2021/09/27 04:36:03;;;;;;;5.70;5.20;;;;;21.60;100403.00;;;;2055415;28;20318;-56
2021/09/27 04:37:04;;;;;;;6.05;5.55;;;;;21.60;100398.00;;;;2060263;28;20222;-57
2021/09/27 04:38:05;;;;;;;6.13;5.70;;;;;21.70;100395.00;;;;2051771;28;20279;-56
2021/09/27 04:39:17;;;;;;;5.72;5.30;;;;;21.70;100398.00;;;;2051627;28;20305;-56
2021/09/27 04:40:19;;;;;;;6.15;5.57;;;;;21.70;100395.00;;;;2055173;28;20225;-56
2021/09/27 04:41:38;;;;;;;6.20;5.70;;;;;21.70;100399.00;;;;2056866;28;20215;-57
2021/09/27 04:43:02;;;;;;;5.97;5.47;;;;;21.70;100401.00;;;;2072485;28;20607;-57
2021/09/27 04:44:22;;;;;;;5.85;5.35;;;;;21.60;100399.00;;;;2065378;28;20218;-57
2021/09/27 04:45:25;;;;;;;5.50;5.00;;;;;21.70;100400.00;;;;2065610;28;20218;-57
2021/09/27 04:46:29;;;;;;;6.10;5.60;;;;;21.70;100396.00;;;;2062091;28;20329;-56
2021/09/27 04:47:29;;;;;;;6.20;5.60;;;;;21.70;100398.00;;;;2061315;28;20229;-56
2021/09/27 04:48:30;;;;;;;5.90;5.40;;;;;21.70;100403.00;;;;2061597;28;20226;-57
2021/09/27 04:49:45;;;;;;;6.70;6.10;;;;;21.60;100393.00;;;;2068755;28;20244;-56
2021/09/27 04:51:01;;;;;;;5.75;5.28;;;;;21.60;100401.00;;;;2061060;28;21077;-56
2021/09/27 04:52:28;;;;;;;7.47;6.15;;;;;21.70;100401.00;;;;2046287;28;20219;-58
2021/09/27 04:53:57;;;;;;;8.20;5.90;;;;;21.70;100396.00;;;;2058407;28;20237;-56
2021/09/27 04:55:21;;;;;;;6.65;6.15;;;;;21.70;100402.00;;;;2058278;28;20297;-56
2021/09/27 04:56:42;;;;;;;5.95;5.45;;;;;21.70;100392.00;;;;2059282;28;20223;-56
2021/09/27 04:58:10;;;;;;;7.43;5.85;;;;;21.70;100393.00;;;;2061288;28;20230;-56
2021/09/27 04:59:37;;;;;;;6.32;5.82;;;;;21.70;100401.00;;;;2056862;28;20758;-56
2021/09/27 05:00:49;;;;;;;5.53;5.13;;;;;21.70;100385.00;;;;2061358;28;20214;-56
2021/09/27 05:02:11;;;;;;;6.05;5.45;;;;;21.70;100377.00;;;;2069459;28;20217;-56
2021/09/27 05:03:28;;;;;;;6.10;5.50;;;;;21.70;100386.00;;;;2069644;28;20311;-56
2021/09/27 05:04:51;;;;;;;5.80;5.30;;;;;21.70;100388.00;;;;2058920;28;20269;-56
2021/09/27 05:05:56;;;;;;;6.65;5.15;;;;;21.80;100388.00;;;;2061891;28;20202;-56
2021/09/27 05:07:09;;;;;;;6.30;5.70;;;;;21.80;100388.00;;;;2064175;28;20649;-56
2021/09/27 05:08:36;;;;;;;7.43;5.18;;;;;21.80;100388.00;;;;2047889;28;20219;-56
2021/09/27 05:09:46;;;;;;;7.07;5.95;;;;;21.80;100392.00;;;;2056686;28;20222;-57
2021/09/27 05:11:05;;;;;;;6.72;6.15;;;;;21.80;100384.00;;;;2064138;28;20214;-56
2021/09/27 05:12:24;;;;;;;5.80;5.30;;;;;21.80;100384.00;;;;2068719;28;20573;-57
2021/09/27 05:13:31;;;;;;;6.05;5.55;;;;;21.70;100393.00;;;;2069421;28;20217;-56
2021/09/27 05:14:49;;;;;;;6.13;5.53;;;;;21.70;100381.00;;;;2062012;28;20281;-56
2021/09/27 05:16:11;;;;;;;5.57;5.10;;;;;21.70;100385.00;;;;2064134;28;20211;-56
2021/09/27 05:17:41;;;;;;;6.43;5.88;;;;;21.70;100377.00;;;;2052548;28;20219;-56
2021/09/27 05:19:08;;;;;;;7.20;5.93;;;;;21.70;100372.00;;;;2054948;28;20462;-56
2021/09/27 05:20:27;;;;;;;5.65;5.15;;;;;21.70;100382.00;;;;2061762;28;20214;-56
2021/09/27 05:21:40;;;;;;;6.63;6.13;;;;;21.70;100379.00;;;;2062220;28;20281;-56
2021/09/27 05:23:11;;;;;;;6.22;5.63;;;;;21.70;100380.00;;;;2061183;28;20242;-56
2021/09/27 05:24:32;;;;;;;6.22;5.68;;;;;21.70;100375.00;;;;2068464;28;20238;-56
2021/09/27 05:26:10;;;;;;;6.60;6.00;;;;;21.70;100387.00;;;;2070021;28;20214;-56
2021/09/27 05:27:47;;;;;;;5.95;5.43;;;;;21.70;100379.00;;;;2064231;28;20277;-56
2021/09/27 05:29:15;;;;;;;5.72;5.22;;;;;21.70;100385.00;;;;2061246;28;20210;-56
2021/09/27 05:30:25;;;;;;;6.85;5.60;;;;;21.70;100374.00;;;;2061115;28;20597;-56
2021/09/27 05:31:48;;;;;;;5.95;5.45;;;;;21.70;100377.00;;;;2066299;28;20317;-56
2021/09/27 05:33:01;;;;;;;6.05;5.45;;;;;21.70;100378.00;;;;2062075;28;20211;-56
2021/09/27 05:34:20;;;;;;;5.80;5.30;;;;;21.70;100380.00;;;;2058013;28;20911;-56
2021/09/27 05:36:14;;;;;;;6.10;5.60;;;;;21.70;100374.00;;;;2057235;28;20223;-56
2021/09/27 05:37:31;;;;;;;6.43;5.93;;;;;21.80;100377.00;;;;2051965;28;20845;-56
2021/09/27 05:38:42;;;;;;;7.07;6.47;;;;;21.70;100385.00;;;;2055303;28;20218;-57
2021/09/27 05:39:54;;;;;;;6.70;6.07;;;;;21.70;100372.00;;;;2048777;28;20212;-56
2021/09/27 05:41:31;;;;;;;9.10;8.13;;;;;21.70;100369.00;;;;2056043;28;20740;-56
2021/09/27 05:42:50;;;;;;;10.10;9.02;;;;;21.80;100374.00;;;;2058366;28;20294;-56
2021/09/27 05:44:15;;;;;;;10.40;9.32;;;;;21.70;100367.00;;;;2067548;28;20203;-57
2021/09/27 05:45:40;;;;;;;10.27;9.25;;;;;21.80;100373.00;;;;2069020;28;20320;-56
2021/09/27 05:46:48;;;;;;;13.13;11.77;;;;;21.70;100370.00;;;;2070051;28;20288;-57
2021/09/27 05:48:10;;;;;;;12.70;11.25;;;;;21.70;100367.00;;;;2067808;28;20214;-56
2021/09/27 05:49:19;;;;;;;16.23;14.57;;;;;21.80;100370.00;;;;2047451;28;20274;-57
2021/09/27 05:50:37;;;;;;;14.07;12.73;;;;;21.70;100376.00;;;;2053047;28;20211;-56
2021/09/27 05:51:52;;;;;;;19.50;17.45;;;;;21.80;100362.00;;;;2061990;28;20298;-56
2021/09/27 05:53:12;;;;;;;17.52;15.35;;;;;21.70;100365.00;;;;2050493;28;20211;-56
2021/09/27 05:54:29;;;;;;;19.90;17.75;;;;;21.80;100358.00;;;;2052000;28;20339;-56
2021/09/27 05:55:33;;;;;;;25.90;22.65;;;;;21.70;100359.00;;;;2064842;28;20218;-56
2021/09/27 05:57:00;;;;;;;43.22;36.22;;;;;21.80;100356.00;;;;2064766;28;20273;-56
2021/09/27 05:58:09;;;;;;;41.45;34.38;;;;;21.80;100358.00;;;;2055977;28;20220;-56
2021/09/27 05:59:12;;;;;;;54.53;47.13;;;;;21.80;100365.00;;;;2064045;28;20655;-56